Pontiac, MI (48340)

12:21 PM EDT on August 31, 2016 (GMT -0400)
Lake Angelus Shores | | Change Station

Elev 0 ft 42.69 °N, 83.33 °W | Updated 21 seconds ago

Overcast
Overcast
73.8 °F
Feels Like 74 °F
N
3.7
Wind Variable Wind from NW
Gusts 8.1 mph

Today
High -- | Low -- °F
--% Chance of Precip.
Yesterday
High -- | Low -- °F
Precip. -- in
Pressure 29.99 in
Visibility 10.0 miles
Clouds Few 800 ft
Mostly Cloudy 1500 ft
Overcast 2300 ft
Heat Index 74 °F
Dew Point 68 °F
Humidity 83%
Rainfall Not available.
Snow Depth Not available.
6:57 AM 8:08 PM
Waning Crescent, 1% visible
METAR KPTK 311553Z 36007KT 10SM FEW008 BKN015 OVC023 23/19 A3001 RMK AO2 SLP154 T02280189
Pressure 29.99 in
Visibility 10.0 miles
Clouds Few 800 ft
Mostly Cloudy 1500 ft
Overcast 2300 ft
Heat Index 74 °F
Dew Point 68 °F
Humidity 83%
Rainfall Not available.
Snow Depth Not available.
6:57 AM 8:08 PM
Waning Crescent, 1% visible
METAR KPTK 311553Z 36007KT 10SM FEW008 BKN015 OVC023 23/19 A3001 RMK AO2 SLP154 T02280189

10-Day Weather Forecast

Almanac

Astronomy

Aug. 31, 2016 Rise Set
Actual Time
Civil Twilight
Nautical Twilight
Astronomical Twilight
Moon
Length of Visible Light
Length of Day
Tomorrow will be .
, % of the Moon is Illuminated

Today's Extremes

State Highs State Lows

Community

WunderPhotos

Upload Photos

1,936,109 photos uploaded!

WunderBlog® & News

Nearby

Air Quality

  Air Quality AQ Index Pollutant
Not available.

Snow Depth

Station Depth Elevation

Earthquake Activity

City Distance Mag. Time & Date
Minimum magnitude displayed is 2.5.

Coastal Water Temperatures

Place Temperature

Stations

Nearby Weather Stations

Station Location Temp. Windchill Dew Point Humidity Wind Precip. Elev Updated Type
                   

Watches & Warnings

There are currently no watches in effect.